Time;durP1;ratioP1;P1;durP2;ratioP2;P2;SDS_P1;SDS_P2;PMS_P1;PMS_P2;Temp;Humidity;BMP_temperature;BMP_pressure;BME280_temperature;BME280_humidity;BME280_pressure;Samples;Min_cycle;Max_cycle;Signal;HPM_P1;HPM_P2
2022/12/31 00:01:37;;;;;;;6.50;3.22;;;;;;;13.06;100.00;100177.78;2616046;36;20042;-59
2022/12/31 00:04:05;;;;;;;7.30;3.27;;;;;;;13.13;100.00;100176.97;2615358;36;20042;-59
2022/12/31 00:06:36;;;;;;;4.18;3.03;;;;;;;13.09;100.00;100175.59;2616231;36;20034;-58
2022/12/31 00:09:07;;;;;;;3.53;2.10;;;;;;;13.02;100.00;100168.34;2616094;36;20026;-59
2022/12/31 00:11:39;;;;;;;3.38;2.08;;;;;;;12.95;100.00;100170.88;2615083;31;20046;-60
2022/12/31 00:14:08;;;;;;;3.33;2.00;;;;;;;13.05;100.00;100166.16;2615358;36;20022;-60
2022/12/31 00:16:39;;;;;;;4.35;1.85;;;;;;;13.13;100.00;100178.78;2615015;36;20038;-58
2022/12/31 00:19:09;;;;;;;2.85;1.77;;;;;;;13.03;100.00;100162.78;2615019;36;20031;-60
2022/12/31 00:21:37;;;;;;;3.20;1.90;;;;;;;13.02;100.00;100161.09;2614997;36;20022;-58
2022/12/31 00:24:08;;;;;;;3.78;1.65;;;;;;;12.97;100.00;100169.69;2614964;36;20565;-58
2022/12/31 00:26:39;;;;;;;3.40;1.75;;;;;;;12.91;100.00;100164.97;2614974;36;20041;-59
2022/12/31 00:29:08;;;;;;;2.97;1.77;;;;;;;12.88;100.00;100162.63;2615427;36;20037;-58
2022/12/31 00:31:39;;;;;;;5.95;1.88;;;;;;;13.06;100.00;100172.38;2614578;36;20034;-59
2022/12/31 00:34:08;;;;;;;4.47;2.65;;;;;;;12.88;100.00;100178.81;2614962;31;20031;-59
2022/12/31 00:36:38;;;;;;;3.55;2.60;;;;;;;13.03;100.00;100179.00;2615085;36;20415;-59
2022/12/31 00:39:09;;;;;;;4.75;2.85;;;;;;;12.92;100.00;100174.75;2615343;36;20038;-59
2022/12/31 00:41:42;;;;;;;4.90;2.22;;;;;;;12.98;100.00;100181.34;2615282;36;20069;-59
2022/12/31 00:44:12;;;;;;;4.18;2.45;;;;;;;12.96;100.00;100170.69;2615256;36;20030;-59
2022/12/31 00:46:41;;;;;;;4.80;2.90;;;;;;;13.01;100.00;100180.16;2615239;36;20042;-59
2022/12/31 00:49:09;;;;;;;4.63;2.83;;;;;;;12.92;100.00;100180.16;2614749;31;20030;-58
2022/12/31 00:51:38;;;;;;;6.05;2.83;;;;;;;13.02;100.00;100181.88;2615262;36;20035;-59
2022/12/31 00:54:07;;;;;;;3.93;2.43;;;;;;;12.86;100.00;100180.81;2614910;36;20034;-59
2022/12/31 00:56:35;;;;;;;;;;;;;;;12.85;100.00;100179.13;2615296;36;20295;-60
2022/12/31 00:59:06;;;;;;;3.97;2.50;;;;;;;12.79;100.00;100182.50;2615024;32;19966;-60
2022/12/31 01:01:37;;;;;;;6.68;2.53;;;;;;;12.82;100.00;100182.16;2613826;36;20030;-59
2022/12/31 01:04:10;;;;;;;4.15;2.33;;;;;;;12.81;100.00;100180.50;2615179;31;20030;-59
2022/12/31 01:06:38;;;;;;;5.70;2.97;;;;;;;12.86;100.00;100183.53;2615249;36;20042;-60
2022/12/31 01:09:07;;;;;;;6.27;2.27;;;;;;;12.94;100.00;100191.66;2615321;36;20039;-59
2022/12/31 01:11:36;;;;;;;5.47;2.20;;;;;;;12.90;100.00;100179.47;2615741;36;20314;-60
2022/12/31 01:14:09;;;;;;;5.70;3.15;;;;;;;13.09;100.00;100185.56;2615764;31;20579;-57
2022/12/31 01:16:40;;;;;;;4.15;2.63;;;;;;;13.06;100.00;100191.28;2615723;36;20034;-59
2022/12/31 01:19:11;;;;;;;4.65;2.58;;;;;;;12.84;100.00;100190.97;2615501;36;20031;-58
2022/12/31 01:21:42;;;;;;;4.50;2.72;;;;;;;12.88;100.00;100188.75;2615929;36;20543;-58
2022/12/31 01:24:11;;;;;;;5.40;2.83;;;;;;;12.92;100.00;100190.94;2615559;31;20614;-57
2022/12/31 01:26:40;;;;;;;5.38;3.10;;;;;;;12.88;100.00;100186.91;2615703;36;20038;-59
2022/12/31 01:29:15;;;;;;;5.28;3.70;;;;;;;12.88;100.00;100197.72;2616524;31;20436;-58
2022/12/31 01:31:44;;;;;;;4.75;2.78;;;;;;;12.89;100.00;100209.38;2616107;31;20553;-58
2022/12/31 01:34:12;;;;;;;5.03;2.90;;;;;;;12.86;100.00;100201.59;2615156;36;20037;-59
2022/12/31 01:36:41;;;;;;;5.53;3.40;;;;;;;12.79;100.00;100204.09;2616009;36;20298;-59
2022/12/31 01:39:10;;;;;;;4.28;3.03;;;;;;;12.88;100.00;100192.31;2614942;36;20031;-59
2022/12/31 01:41:41;;;;;;;5.40;3.30;;;;;;;12.89;100.00;100191.28;2615027;31;20023;-59
2022/12/31 01:44:40;;;;;;;5.90;3.20;;;;;;;12.97;100.00;100196.72;2615412;36;20036;-59
2022/12/31 01:47:17;;;;;;;5.38;3.47;;;;;;;13.09;100.00;100194.53;2614403;36;20039;-59
2022/12/31 01:49:49;;;;;;;7.50;3.10;;;;;;;13.06;100.00;100191.28;2616132;36;20037;-58
2022/12/31 01:52:22;;;;;;;6.25;3.40;;;;;;;13.05;100.00;100203.13;2616585;36;20558;-59
2022/12/31 01:54:53;;;;;;;4.78;3.40;;;;;;;12.87;100.00;100203.28;2616016;36;20030;-59
2022/12/31 01:57:23;;;;;;;4.72;3.20;;;;;;;12.94;100.00;100198.88;2616777;36;20575;-59
2022/12/31 01:59:53;;;;;;;4.47;2.70;;;;;;;12.89;100.00;100199.38;2616855;36;20037;-59
2022/12/31 02:02:24;;;;;;;;;;;;;;;12.99;100.00;100195.72;2616455;36;20030;-59
2022/12/31 02:04:54;;;;;;;4.60;2.63;;;;;;;12.77;100.00;100189.94;2615586;36;19958;-59
2022/12/31 02:07:24;;;;;;;6.50;2.67;;;;;;;12.66;100.00;100199.22;2615050;31;20054;-59
2022/12/31 02:09:53;;;;;;;4.93;2.33;;;;;;;12.76;100.00;100196.34;2615855;36;20031;-60
2022/12/31 02:12:22;;;;;;;5.32;2.08;;;;;;;12.70;100.00;100194.31;2616496;36;20031;-59
2022/12/31 02:14:53;;;;;;;5.63;2.03;;;;;;;12.65;100.00;100196.66;2616680;36;20038;-59
2022/12/31 02:17:29;;;;;;;4.88;2.00;;;;;;;12.84;100.00;100196.38;2615843;36;20126;-60
2022/12/31 02:20:15;;;;;;;4.88;1.80;;;;;;;12.57;100.00;100194.78;2614721;36;20034;-60
2022/12/31 02:23:05;;;;;;;6.93;1.80;;;;;;;12.49;100.00;100182.13;2616416;36;20042;-59
2022/12/31 02:25:52;;;;;;;5.97;1.80;;;;;;;12.53;100.00;100177.22;2616471;36;20268;-60
2022/12/31 02:28:37;;;;;;;8.60;1.80;;;;;;;12.53;100.00;100178.09;2616461;36;20038;-58
2022/12/31 02:31:13;;;;;;;10.38;2.15;;;;;;;12.54;100.00;100168.13;2616310;36;20423;-58
2022/12/31 02:33:46;;;;;;;5.60;1.70;;;;;;;12.52;100.00;100162.06;2616089;36;20543;-58
2022/12/31 02:36:19;;;;;;;7.72;2.08;;;;;;;12.54;100.00;100160.88;2616004;36;20053;-59
2022/12/31 02:38:50;;;;;;;6.38;1.90;;;;;;;12.51;100.00;100163.06;2616609;36;20034;-59
2022/12/31 02:44:01;;;;;;;4.88;2.10;;;;;;;12.51;100.00;100163.06;2615106;36;20118;-60
2022/12/31 02:46:46;;;;;;;6.47;2.35;;;;;;;12.53;100.00;100166.44;2616437;31;20042;-59
2022/12/31 02:49:22;;;;;;;7.68;1.90;;;;;;;12.49;100.00;100171.34;2615868;36;20053;-60
2022/12/31 02:52:00;;;;;;;4.50;1.70;;;;;;;12.52;100.00;100173.69;2615751;36;20031;-59
2022/12/31 02:54:35;;;;;;;6.45;1.95;;;;;;;12.39;100.00;100184.13;2616184;36;20041;-58
2022/12/31 02:57:11;;;;;;;8.13;1.85;;;;;;;12.49;100.00;100198.31;2615983;36;20044;-58
2022/12/31 03:02:31;;;;;;;4.25;1.83;;;;;;;12.52;100.00;100183.66;2616035;36;20034;-59
2022/12/31 03:05:02;;;;;;;7.35;1.90;;;;;;;12.60;100.00;100186.34;2616251;36;20022;-59
2022/12/31 03:07:33;;;;;;;3.95;2.10;;;;;;;12.67;100.00;100200.06;2616204;36;20034;-60
2022/12/31 03:10:02;;;;;;;5.32;2.10;;;;;;;12.55;100.00;100192.25;2616173;36;20062;-59
2022/12/31 03:12:45;;;;;;;6.57;3.10;;;;;;;12.51;100.00;100199.00;2616156;36;20114;-60
2022/12/31 03:15:21;;;;;;;7.63;2.35;;;;;;;12.45;100.00;100207.75;2616382;36;20022;-60
2022/12/31 03:17:58;;;;;;;4.88;2.58;;;;;;;12.50;100.00;100205.41;2615863;31;20130;-59
2022/12/31 03:23:15;;;;;;;6.07;2.75;;;;;;;12.65;100.00;100210.16;2615919;31;20122;-59
2022/12/31 03:25:42;;;;;;;7.88;3.78;;;;;;;12.39;100.00;100203.00;2616110;36;20590;-59
2022/12/31 03:28:12;;;;;;;7.90;3.50;;;;;;;12.34;100.00;100206.22;2616171;36;20042;-60
2022/12/31 03:30:43;;;;;;;6.85;3.67;;;;;;;12.35;100.00;100201.66;2616310;36;20038;-60
2022/12/31 03:33:15;;;;;;;7.25;3.85;;;;;;;12.48;100.00;100201.19;2615928;36;20041;-59
2022/12/31 03:35:45;;;;;;;7.72;3.95;;;;;;;12.39;100.00;100213.81;2615877;36;20041;-59
2022/12/31 03:38:13;;;;;;;11.57;4.00;;;;;;;12.25;100.00;100208.03;2615892;31;20035;-59
2022/12/31 03:40:45;;;;;;;8.27;4.00;;;;;;;12.32;100.00;100216.31;2616264;36;20030;-59
2022/12/31 03:43:14;;;;;;;7.60;3.85;;;;;;;12.42;100.00;100213.47;2616338;36;20034;-59
2022/12/31 03:45:43;;;;;;;8.93;3.92;;;;;;;12.44;100.00;100223.09;2616523;36;20026;-64
2022/12/31 03:48:14;;;;;;;7.65;3.72;;;;;;;12.37;100.00;100223.94;2615413;36;20023;-59
2022/12/31 03:50:42;;;;;;;8.38;3.80;;;;;;;12.40;100.00;100221.75;2615914;36;20546;-59
2022/12/31 03:53:11;;;;;;;6.33;3.33;;;;;;;12.53;100.00;100205.09;2616412;36;20034;-59
2022/12/31 03:55:39;;;;;;;4.53;3.45;;;;;;;12.36;100.00;100209.56;2616045;36;20041;-59
2022/12/31 03:58:08;;;;;;;5.75;3.55;;;;;;;12.34;100.00;100210.78;2615981;36;20053;-60
2022/12/31 04:00:36;;;;;;;5.75;3.20;;;;;;;12.30;100.00;100198.63;2616339;31;20041;-59
2022/12/31 04:03:05;;;;;;;4.97;3.13;;;;;;;12.44;100.00;100201.53;2616083;36;20364;-60
2022/12/31 04:05:36;;;;;;;5.05;2.90;;;;;;;12.34;100.00;100195.41;2615713;36;20061;-59
2022/12/31 04:08:04;;;;;;;8.40;3.00;;;;;;;12.30;100.00;100193.22;2615102;36;20022;-59
2022/12/31 04:10:32;;;;;;;3.63;2.60;;;;;;;12.22;100.00;100192.19;2615762;36;20126;-59
2022/12/31 04:13:03;;;;;;;5.47;2.50;;;;;;;12.15;100.00;100182.22;2615907;36;20026;-59
2022/12/31 04:15:31;;;;;;;6.03;2.30;;;;;;;12.27;100.00;100179.03;2616650;36;20062;-60
2022/12/31 04:18:00;;;;;;;6.73;2.63;;;;;;;12.17;100.00;100170.22;2615822;31;20027;-59
2022/12/31 04:20:28;;;;;;;5.60;2.60;;;;;;;12.20;100.00;100156.41;2615571;36;20029;-59
2022/12/31 04:22:59;;;;;;;4.43;2.22;;;;;;;12.11;100.00;100152.00;2616543;36;20649;-59
2022/12/31 04:25:27;;;;;;;6.28;2.10;;;;;;;12.14;100.00;100165.16;2616074;36;20041;-60
2022/12/31 04:27:56;;;;;;;5.13;2.20;;;;;;;12.17;100.00;100169.38;2616048;36;20030;-59
2022/12/31 04:30:24;;;;;;;4.93;2.00;;;;;;;12.13;100.00;100168.03;2616322;31;20045;-58
2022/12/31 04:32:52;;;;;;;5.78;2.60;;;;;;;12.14;100.00;100177.81;2615838;36;20034;-59
2022/12/31 04:35:20;;;;;;;4.28;1.80;;;;;;;12.04;100.00;100186.03;2615630;36;20034;-59
2022/12/31 04:37:49;;;;;;;4.07;2.30;;;;;;;12.06;100.00;100187.56;2615955;36;20030;-59
2022/12/31 04:40:20;;;;;;;5.72;2.50;;;;;;;12.04;100.00;100186.88;2615732;36;20034;-59
2022/12/31 04:42:48;;;;;;;6.10;1.88;;;;;;;11.98;100.00;100178.59;2615899;36;20724;-59
2022/12/31 04:45:16;;;;;;;3.45;1.75;;;;;;;12.09;100.00;100173.75;2616098;36;20030;-59
2022/12/31 04:47:45;;;;;;;4.10;2.63;;;;;;;12.10;100.00;100174.56;2615857;36;20551;-60
2022/12/31 04:50:13;;;;;;;3.35;1.70;;;;;;;12.08;100.00;100184.69;2614680;31;20288;-59
2022/12/31 04:52:41;;;;;;;5.93;2.20;;;;;;;12.10;100.00;100188.06;2615958;36;20053;-59
2022/12/31 04:55:10;;;;;;;4.85;2.20;;;;;;;12.09;100.00;100187.22;2615810;36;20023;-60
2022/12/31 04:57:42;;;;;;;5.53;2.20;;;;;;;12.11;100.00;100181.66;2615975;36;20061;-60
2022/12/31 05:00:12;;;;;;;4.40;2.22;;;;;;;12.00;100.00;100190.03;2615333;36;20045;-59
2022/12/31 05:02:40;;;;;;;4.20;2.40;;;;;;;12.10;100.00;100198.84;2615668;36;20034;-58
2022/12/31 05:05:10;;;;;;;4.50;1.92;;;;;;;11.95;100.00;100193.22;2615944;36;20598;-58
2022/12/31 05:07:38;;;;;;;;;;;;;;;12.04;100.00;100204.91;2616174;36;20435;-59
2022/12/31 05:10:08;;;;;;;3.45;2.05;;;;;;;11.97;100.00;100195.75;2616465;31;19951;-58
2022/12/31 05:12:36;;;;;;;4.00;2.17;;;;;;;12.00;100.00;100192.75;2616029;36;20065;-59
2022/12/31 05:15:09;;;;;;;2.70;2.20;;;;;;;12.06;100.00;100184.88;2616641;36;20432;-59
2022/12/31 05:17:37;;;;;;;5.00;2.70;;;;;;;11.91;100.00;100184.59;2615825;36;20023;-59
2022/12/31 05:20:07;;;;;;;7.47;2.47;;;;;;;11.96;100.00;100186.00;2615856;36;20034;-58
2022/12/31 05:22:35;;;;;;;;;;;;;;;11.95;100.00;100184.31;2616374;36;20036;-59
2022/12/31 05:25:03;;;;;;;6.32;2.70;;;;;;;11.99;100.00;100191.91;2616645;36;19957;-58
2022/12/31 05:27:32;;;;;;;3.38;2.40;;;;;;;11.91;100.00;100186.44;2616740;36;20030;-59
2022/12/31 05:30:00;;;;;;;4.15;2.50;;;;;;;12.06;100.00;100187.56;2616884;36;20031;-59
2022/12/31 05:32:32;;;;;;;6.27;2.60;;;;;;;12.08;100.00;100185.53;2616448;36;20037;-58
2022/12/31 05:35:01;;;;;;;4.50;2.83;;;;;;;12.01;100.00;100199.84;2616681;36;20035;-59
2022/12/31 05:37:30;;;;;;;4.47;2.80;;;;;;;11.85;100.00;100206.81;2616477;36;20081;-59
2022/12/31 05:39:59;;;;;;;4.53;2.65;;;;;;;11.90;100.00;100199.09;2616466;36;20031;-58
2022/12/31 05:42:27;;;;;;;6.43;2.90;;;;;;;11.92;100.00;100193.53;2616759;36;20046;-58
2022/12/31 05:44:56;;;;;;;6.63;3.33;;;;;;;12.02;100.00;100194.28;2616802;36;20033;-58
2022/12/31 05:47:25;;;;;;;6.83;3.03;;;;;;;12.06;100.00;100202.91;2616749;36;20510;-59
2022/12/31 05:49:56;;;;;;;7.22;3.75;;;;;;;12.20;100.00;100194.19;2616492;36;20579;-58
2022/12/31 05:52:24;;;;;;;5.55;3.58;;;;;;;12.11;100.00;100195.16;2615584;31;20039;-58
2022/12/31 05:54:52;;;;;;;6.83;3.90;;;;;;;12.15;100.00;100196.53;2616632;36;20034;-59
2022/12/31 05:57:21;;;;;;;6.47;3.75;;;;;;;12.11;100.00;100195.16;2616799;36;20022;-58
2022/12/31 05:59:52;;;;;;;6.93;4.00;;;;;;;12.18;100.00;100188.09;2616724;36;20034;-59
2022/12/31 06:02:20;;;;;;;6.57;4.25;;;;;;;12.10;100.00;100193.47;2616308;36;20539;-59
2022/12/31 06:04:49;;;;;;;9.77;4.63;;;;;;;12.20;100.00;100199.56;2615961;36;20027;-59
2022/12/31 06:07:20;;;;;;;6.23;3.77;;;;;;;12.23;100.00;100204.66;2616762;36;20450;-60
2022/12/31 06:09:48;;;;;;;6.60;3.83;;;;;;;12.13;100.00;100193.16;2616333;36;20027;-59
2022/12/31 06:12:16;;;;;;;7.60;4.13;;;;;;;12.18;100.00;100200.75;2616554;36;20550;-60
2022/12/31 06:14:45;;;;;;;7.05;4.22;;;;;;;12.22;100.00;100202.09;2616450;36;20897;-59
2022/12/31 06:17:13;;;;;;;7.40;4.32;;;;;;;12.37;100.00;100191.56;2616442;36;20041;-60
2022/12/31 06:19:42;;;;;;;6.80;4.20;;;;;;;12.27;100.00;100199.78;2616210;36;20038;-59
2022/12/31 06:22:10;;;;;;;7.70;4.07;;;;;;;12.35;100.00;100197.13;2616238;36;20035;-58
2022/12/31 06:24:41;;;;;;;7.07;4.28;;;;;;;12.25;100.00;100201.81;2615692;36;20023;-59
2022/12/31 06:27:09;;;;;;;5.95;3.70;;;;;;;12.31;100.00;100205.69;2616642;36;20031;-59
2022/12/31 06:29:38;;;;;;;6.55;3.92;;;;;;;12.32;100.00;100199.28;2616307;36;20039;-58
2022/12/31 06:32:07;;;;;;;8.60;3.63;;;;;;;12.35;100.00;100196.25;2614635;36;20034;-59
2022/12/31 06:34:35;;;;;;;8.52;3.45;;;;;;;12.42;100.00;100194.59;2614809;36;20030;-59
2022/12/31 06:37:04;;;;;;;6.55;3.83;;;;;;;12.39;100.00;100194.91;2616549;36;20376;-58
2022/12/31 06:39:32;;;;;;;7.63;3.93;;;;;;;12.41;100.00;100196.44;2615882;36;20034;-58
2022/12/31 06:42:03;;;;;;;6.35;3.50;;;;;;;12.41;100.00;100209.94;2615769;36;20030;-59
2022/12/31 06:44:32;;;;;;;5.68;3.58;;;;;;;12.55;100.00;100207.63;2616621;31;20034;-59
2022/12/31 06:47:00;;;;;;;4.70;3.40;;;;;;;12.54;100.00;100211.31;2616292;36;20029;-60
2022/12/31 06:49:28;;;;;;;5.77;3.50;;;;;;;12.48;100.00;100212.81;2616039;36;20026;-60
2022/12/31 06:51:57;;;;;;;5.68;3.55;;;;;;;12.48;100.00;100207.41;2616322;31;20029;-60
2022/12/31 06:54:25;;;;;;;6.22;3.75;;;;;;;12.49;100.00;100214.53;2616401;31;20038;-60
2022/12/31 06:56:54;;;;;;;5.30;3.35;;;;;;;12.61;100.00;100223.16;2616428;36;20030;-59
2022/12/31 06:59:29;;;;;;;5.20;3.28;;;;;;;12.72;100.00;100219.28;2616701;36;20038;-59
2022/12/31 07:02:44;;;;;;;4.55;3.15;;;;;;;12.77;100.00;100211.53;2616161;36;20058;-59
2022/12/31 07:05:28;;;;;;;3.70;2.83;;;;;;;12.82;100.00;100219.97;2614376;31;20035;-59
2022/12/31 07:08:07;;;;;;;4.43;3.20;;;;;;;12.86;100.00;100218.63;2616104;36;20057;-59
2022/12/31 07:10:45;;;;;;;6.07;3.65;;;;;;;12.89;100.00;100222.88;2616521;36;20042;-59
2022/12/31 07:13:29;;;;;;;6.03;3.63;;;;;;;12.96;100.00;100213.91;2616287;36;20578;-60
2022/12/31 07:16:15;;;;;;;7.25;4.82;;;;;;;13.06;100.00;100223.72;2616432;31;20295;-59
2022/12/31 07:18:49;;;;;;;6.45;4.13;;;;;;;13.06;100.00;100212.91;2616053;36;20556;-60
2022/12/31 07:21:23;;;;;;;7.38;4.75;;;;;;;13.13;100.00;100208.53;2615835;36;20041;-59
2022/12/31 07:23:52;;;;;;;7.75;4.65;;;;;;;13.13;100.00;100195.88;2616571;36;20026;-60
2022/12/31 07:26:32;;;;;;;8.50;4.57;;;;;;;13.19;100.00;100204.31;2616097;36;20034;-60
2022/12/31 07:29:10;;;;;;;7.85;5.45;;;;;;;13.19;100.00;100199.75;2616290;36;20026;-60
2022/12/31 07:31:56;;;;;;;8.15;5.40;;;;;;;13.38;100.00;100195.88;2616340;36;20650;-60
2022/12/31 07:34:35;;;;;;;6.65;4.70;;;;;;;13.21;100.00;100196.88;2615693;36;20053;-61
2022/12/31 07:37:12;;;;;;;8.18;4.97;;;;;;;13.40;100.00;100207.38;2616755;36;20416;-59
2022/12/31 07:39:48;;;;;;;6.20;4.25;;;;;;;13.47;100.00;100210.22;2616128;36;20022;-59
2022/12/31 07:42:22;;;;;;;4.00;2.75;;;;;;;13.42;100.00;100215.31;2616034;36;20026;-60
2022/12/31 07:45:01;;;;;;;5.72;3.08;;;;;;;13.47;100.00;100207.50;2616169;36;20050;-60
2022/12/31 07:47:32;;;;;;;5.32;3.00;;;;;;;13.57;100.00;100219.00;2616094;36;20035;-60
2022/12/31 07:50:01;;;;;;;4.25;2.70;;;;;;;13.60;100.00;100220.50;2616058;31;20424;-59
2022/12/31 07:52:30;;;;;;;3.60;2.50;;;;;;;13.69;100.00;100227.59;2616435;36;20035;-60
2022/12/31 07:54:58;;;;;;;3.30;2.30;;;;;;;13.69;100.00;100232.16;2616630;36;20451;-60
2022/12/31 07:57:35;;;;;;;3.63;2.00;;;;;;;13.78;100.00;100233.81;2615898;31;20034;-59
2022/12/31 08:00:09;;;;;;;5.25;2.25;;;;;;;13.84;100.00;100227.75;2616491;36;20590;-59
2022/12/31 08:03:03;;;;;;;3.25;1.50;;;;;;;13.82;100.00;100233.34;2615324;36;20557;-59
2022/12/31 08:05:35;;;;;;;9.75;3.28;;;;;;;13.90;100.00;100237.88;2616492;31;20488;-59
2022/12/31 08:08:18;;;;;;;2.67;1.08;;;;;;;13.84;100.00;100254.78;2616215;36;20038;-59
2022/12/31 08:10:58;;;;;;;2.30;1.00;;;;;;;13.97;100.00;100255.09;2615967;36;20038;-59
2022/12/31 08:13:27;;;;;;;1.67;0.90;;;;;;;13.95;100.00;100257.13;2615987;36;20038;-60
2022/12/31 08:15:55;;;;;;;;;;;;;;;14.00;100.00;100246.63;2616183;36;20060;-60
2022/12/31 08:18:27;;;;;;;2.38;1.25;;;;;;;13.94;100.00;100239.22;2615296;36;19981;-61
2022/12/31 08:21:08;;;;;;;1.92;0.80;;;;;;;13.90;100.00;100251.41;2615520;36;20042;-59
2022/12/31 08:23:44;;;;;;;1.38;0.90;;;;;;;13.99;100.00;100252.22;2616228;36;20034;-60
2022/12/31 08:26:24;;;;;;;1.98;0.77;;;;;;;14.05;100.00;100256.94;2616048;36;20042;-59
2022/12/31 08:29:03;;;;;;;1.55;0.90;;;;;;;13.99;100.00;100254.94;2616148;36;20046;-60
2022/12/31 08:31:41;;;;;;;1.48;0.95;;;;;;;14.09;100.00;100257.41;2616020;36;20041;-59
2022/12/31 08:34:21;;;;;;;2.25;1.10;;;;;;;14.22;100.00;100262.28;2615633;31;20586;-60
2022/12/31 08:36:56;;;;;;;2.88;0.90;;;;;;;14.11;100.00;100272.47;2615993;36;20038;-59
2022/12/31 08:39:36;;;;;;;1.73;1.02;;;;;;;14.07;100.00;100262.16;2616523;36;20420;-59
2022/12/31 08:42:13;;;;;;;2.88;1.17;;;;;;;14.13;100.00;100283.13;2616137;31;20045;-59
2022/12/31 08:44:50;;;;;;;3.25;1.10;;;;;;;14.11;100.00;100274.34;2615905;36;20022;-61
2022/12/31 08:47:28;;;;;;;1.63;0.90;;;;;;;14.15;100.00;100283.81;2616720;36;20451;-59
2022/12/31 08:49:59;;;;;;;1.20;0.90;;;;;;;13.98;100.00;100270.28;2615396;36;20062;-59
2022/12/31 08:52:29;;;;;;;1.05;0.90;;;;;;;14.01;100.00;100282.66;2616103;36;20035;-59
2022/12/31 08:54:57;;;;;;;;;;;;;;;14.10;100.00;100294.28;2616031;36;20060;-59
2022/12/31 08:57:35;;;;;;;1.30;0.80;;;;;;;13.96;100.00;100299.41;2615893;36;20450;-60
2022/12/31 09:00:08;;;;;;;1.45;0.82;;;;;;;13.98;100.00;100305.47;2616042;36;20043;-59
2022/12/31 09:03:03;;;;;;;3.17;1.23;;;;;;;13.89;100.00;100305.69;2616211;36;20420;-59
2022/12/31 09:05:45;;;;;;;4.68;1.70;;;;;;;13.93;100.00;100315.97;2615068;36;20027;-59
2022/12/31 09:08:24;;;;;;;3.95;1.10;;;;;;;13.92;100.00;100314.28;2615757;36;20548;-60
2022/12/31 09:10:59;;;;;;;1.73;1.05;;;;;;;13.88;100.00;100315.63;2616203;36;20042;-60
2022/12/31 09:13:39;;;;;;;3.47;1.27;;;;;;;14.01;100.00;100320.53;2615950;31;20026;-59
2022/12/31 09:16:15;;;;;;;3.08;1.00;;;;;;;14.05;100.00;100327.28;2615851;36;20282;-60
2022/12/31 09:18:44;;;;;;;2.20;0.90;;;;;;;13.96;100.00;100339.97;2615860;36;20023;-59
2022/12/31 09:21:16;;;;;;;;;;;;;;;14.04;100.00;100343.69;2615823;36;20022;-59
2022/12/31 09:23:45;;;;;;;2.28;1.60;;;;;;;14.06;100.00;100344.34;2616678;36;20359;-59
2022/12/31 09:26:22;;;;;;;;;;;;;;;14.19;100.00;100366.31;2616305;36;20570;-59
2022/12/31 09:28:58;;;;;;;2.47;1.50;;;;;;;13.99;100.00;100352.31;2615901;36;20530;-59
2022/12/31 09:31:37;;;;;;;6.93;3.67;;;;;;;14.14;100.00;100371.41;2616124;36;20633;-59
2022/12/31 09:34:13;;;;;;;2.85;1.90;;;;;;;14.14;100.00;100363.28;2615299;36;20046;-60
2022/12/31 09:36:50;;;;;;;2.50;1.83;;;;;;;14.03;100.00;100359.09;2615012;36;20111;-60
2022/12/31 09:39:28;;;;;;;3.13;1.95;;;;;;;14.10;100.00;100354.66;2616081;36;20139;-61
2022/12/31 09:42:41;;;;;;;4.85;1.88;;;;;;;14.13;100.00;100364.31;2616545;36;20043;-61
2022/12/31 09:45:39;;;;;;;3.65;2.25;;;;;;;14.29;100.00;100350.72;2615964;36;20034;-62
2022/12/31 09:48:48;;;;;;;5.60;3.47;;;;;;;14.46;100.00;100356.13;2615243;36;20022;-60
2022/12/31 09:51:30;;;;;;;9.15;4.70;;;;;;;14.53;100.00;100367.94;2615876;36;20440;-61
2022/12/31 09:54:20;;;;;;;6.72;3.78;;;;;;;14.39;100.00;100371.38;2616604;31;20427;-60
2022/12/31 09:56:51;;;;;;;;;;;;;;;14.57;100.00;100357.59;2616500;36;20454;-60
2022/12/31 09:59:29;;;;;;;3.22;1.95;;;;;;;14.59;100.00;100352.84;2615931;36;19946;-60
2022/12/31 10:02:03;;;;;;;4.15;1.67;;;;;;;14.51;100.00;100378.09;2615873;31;20043;-59
2022/12/31 10:05:01;;;;;;;4.97;1.58;;;;;;;14.49;100.00;100374.72;2614944;36;20034;-60
2022/12/31 10:07:48;;;;;;;3.30;1.58;;;;;;;14.55;100.00;100382.16;2615253;36;20023;-60
2022/12/31 10:10:24;;;;;;;3.38;1.65;;;;;;;14.36;100.00;100364.44;2616171;36;20042;-59
2022/12/31 10:13:19;;;;;;;1.92;1.02;;;;;;;14.50;100.00;100376.41;2616565;36;20057;-58
2022/12/31 10:16:11;;;;;;;3.40;1.50;;;;;;;14.58;100.00;100360.13;2617108;36;20038;-60
2022/12/31 10:19:06;;;;;;;5.85;1.88;;;;;;;14.51;100.00;100388.94;2616019;36;20632;-58
2022/12/31 10:21:46;;;;;;;4.93;2.30;;;;;;;14.53;100.00;100386.88;2616815;36;20513;-58
2022/12/31 10:24:33;;;;;;;4.50;1.80;;;;;;;14.44;100.00;100356.31;2616325;36;20027;-58
2022/12/31 10:27:20;;;;;;;6.88;3.42;;;;;;;14.50;100.00;100376.41;2616681;36;20026;-58
2022/12/31 10:29:50;;;;;;;6.13;3.80;;;;;;;14.63;100.00;100376.72;2616509;36;20044;-59
2022/12/31 10:32:22;;;;;;;5.30;2.60;;;;;;;14.74;100.00;100355.69;2616204;36;20535;-59
2022/12/31 10:34:57;;;;;;;7.90;3.00;;;;;;;14.77;100.00;100361.63;2615897;36;20547;-61
2022/12/31 10:37:30;;;;;;;7.45;3.95;;;;;;;14.82;100.00;100374.63;2616201;36;20044;-59
2022/12/31 10:40:08;;;;;;;4.82;2.65;;;;;;;14.94;100.00;100373.22;2616389;36;20157;-60
2022/12/31 10:43:18;;;;;;;6.88;3.03;;;;;;;15.02;100.00;100388.63;2616563;36;20027;-59
2022/12/31 10:46:26;;;;;;;6.55;3.30;;;;;;;15.00;100.00;100377.94;2616650;36;20034;-59
2022/12/31 10:49:34;;;;;;;6.07;2.30;;;;;;;15.14;100.00;100375.50;2616651;36;20438;-59
2022/12/31 10:52:42;;;;;;;4.15;2.45;;;;;;;14.90;100.00;100380.03;2617301;36;20419;-59
2022/12/31 10:55:33;;;;;;;6.27;3.23;;;;;;;14.96;100.00;100367.63;2615188;36;20129;-59
2022/12/31 10:58:47;;;;;;;8.50;4.35;;;;;;;15.03;100.00;100377.59;2615634;36;20034;-60
2022/12/31 11:01:23;;;;;;;5.45;3.67;;;;;;;15.12;100.00;100388.38;2615169;36;20438;-58
2022/12/31 11:04:27;;;;;;;8.98;4.45;;;;;;;15.19;100.00;100364.97;2614759;36;20030;-58
2022/12/31 11:07:26;;;;;;;4.85;2.88;;;;;;;15.17;100.00;100369.72;2615871;36;20034;-59
2022/12/31 11:10:09;;;;;;;4.50;2.50;;;;;;;15.27;100.00;100373.06;2615776;36;20566;-58
2022/12/31 11:13:08;;;;;;;7.88;2.90;;;;;;;15.28;100.00;100363.03;2615946;31;20045;-60
2022/12/31 11:15:54;;;;;;;4.05;2.22;;;;;;;15.33;100.00;100356.06;2615893;31;20031;-58
2022/12/31 11:18:31;;;;;;;4.97;2.00;;;;;;;15.33;100.00;100350.66;2615532;31;20031;-61
2022/12/31 11:21:14;;;;;;;5.30;2.30;;;;;;;15.22;100.00;100372.72;2615625;36;20031;-62
2022/12/31 11:23:55;;;;;;;3.45;2.25;;;;;;;15.20;100.00;100378.34;2616172;36;20035;-60
2022/12/31 11:26:35;;;;;;;5.25;2.30;;;;;;;15.28;100.00;100382.84;2616009;36;20038;-59
2022/12/31 11:29:32;;;;;;;5.18;1.85;;;;;;;15.28;100.00;100358.47;2615361;36;20026;-59
2022/12/31 11:32:17;;;;;;;2.55;1.55;;;;;;;15.35;100.00;100375.69;2616617;36;20418;-59
2022/12/31 11:35:04;;;;;;;3.00;2.13;;;;;;;15.29;100.00;100371.00;2615827;31;20042;-60
2022/12/31 11:37:43;;;;;;;4.88;2.45;;;;;;;15.29;100.00;100394.56;2616306;36;20030;-58
2022/12/31 11:40:38;;;;;;;3.55;2.33;;;;;;;15.24;100.00;100386.97;2615896;36;20042;-58
2022/12/31 11:43:21;;;;;;;5.00;1.90;;;;;;;15.12;100.00;100380.25;2616338;36;20023;-59
2022/12/31 11:46:19;;;;;;;3.55;2.13;;;;;;;15.17;100.00;100399.53;2616093;36;20550;-59
2022/12/31 11:48:59;;;;;;;3.87;1.90;;;;;;;15.26;100.00;100403.06;2615835;31;20069;-60
2022/12/31 11:51:46;;;;;;;3.55;1.80;;;;;;;15.32;100.00;100392.31;2615917;36;20300;-59
2022/12/31 11:54:42;;;;;;;4.35;2.35;;;;;;;15.11;100.00;100389.41;2617013;31;20042;-60
2022/12/31 11:57:23;;;;;;;4.90;2.20;;;;;;;15.19;100.00;100389.34;2616640;31;20427;-59
2022/12/31 11:59:58;;;;;;;5.05;2.40;;;;;;;15.25;100.00;100375.09;2615718;36;20026;-60
2022/12/31 12:02:29;;;;;;;4.22;2.45;;;;;;;15.29;100.00;100378.31;2616007;36;20022;-60
2022/12/31 12:05:02;;;;;;;4.35;2.80;;;;;;;15.31;100.00;100379.81;2614399;36;20039;-59